Date,TemperatureHighF,TemperatureAvgF,TemperatureLowF,DewpointHighF,DewpointAvgF,DewpointLowF,HumidityHigh,HumidityAvg,HumidityLow,PressureMaxIn,PressureMinIn,WindSpeedMaxMPH,WindSpeedAvgMPH,GustSpeedMaxMPH,PrecipitationSumIn
2013-1-1,47,43,39,46,37,23,98,79,49,30.03,29.88,3,0,7,0.01
2013-1-2,46,40,37,45,38,34,99,93,82,30.05,29.85,1,0,4,0.27
2013-1-3,41,36,28,38,33,16,99,87,50,30.20,30.00,2,0,6,0.00
2013-1-4,44,31,23,25,22,17,89,68,43,30.26,30.13,4,0,6,0.01
2013-1-5,46,34,23,32,21,15,88,61,29,30.29,30.13,5,1,17,0.01
2013-1-6,52,39,34,37,31,25,89,74,54,30.13,29.95,3,0,7,0.01
2013-1-7,52,38,28,28,25,22,85,60,33,30.32,30.10,3,0,8,0.00
2013-1-8,51,38,26,44,32,22,90,78,61,30.35,30.24,4,0,11,0.00
2013-1-9,57,52,47,53,50,44,100,92,85,30.41,30.29,3,0,9,0.01
2013-1-10,63,54,46,52,49,45,100,83,62,30.45,30.29,2,0,6,0.03
2013-1-11,58,53,51,58,53,49,100,98,92,30.30,30.10,3,0,9,0.91
2013-1-12,70,62,57,60,58,56,100,87,68,30.15,30.08,5,1,13,0.82
2013-1-13,64,60,58,58,56,55,94,89,78,30.11,30.03,5,2,14,0.19
2013-1-14,61,58,47,60,58,46,99,97,93,30.12,30.02,7,1,13,0.54
2013-1-15,55,50,45,55,50,45,100,100,96,30.09,29.97,2,0,5,1.63
2013-1-16,55,51,45,55,51,45,100,100,97,29.97,29.88,3,0,10,0.86
2013-1-17,52,45,36,52,44,29,100,96,74,30.07,29.70,5,0,14,0.48
2013-1-18,49,38,28,27,21,14,80,53,27,30.40,30.19,3,0,9,0.00
2013-1-19,49,37,27,29,25,21,89,64,34,30.37,30.09,7,1,13,0.00
2013-1-20,59,44,33,32,26,16,69,48,31,30.09,29.97,3,0,6,0.00
2013-1-21,54,38,28,30,22,13,90,57,27,30.04,29.88,6,0,14,0.00
2013-1-22,36,27,21,17,6,-3,61,42,25,30.11,29.91,4,0,8,0.00
2013-1-23,48,31,18,25,13,1,59,46,35,30.19,29.96,6,1,14,0.00
2013-1-24,44,37,24,30,16,2,64,43,23,30.30,29.88,5,1,12,0.00
2013-1-25,39,25,20,37,16,2,95,72,42,30.33,29.95,5,1,12,0.01
2013-1-26,42,34,30,34,31,27,96,89,69,30.25,29.99,1,0,6,0.02
2013-1-27,44,34,24,33,28,22,95,80,58,30.40,30.24,4,1,9,0.09
2013-1-28,59,46,36,47,39,28,91,78,64,30.34,30.18,8,2,17,0.00
2013-1-29,66,55,45,56,49,41,94,81,58,30.19,29.97,6,1,15,0.12
2013-1-30,61,56,44,59,54,37,96,91,75,29.97,29.45,13,4,34,0.22
2013-1-31,44,38,32,40,19,13,91,48,33,29.94,29.50,5,2,16,0.02
2013-2-1,39,30,19,28,10,-5,68,45,21,30.22,29.83,8,2,20,0.00
2013-2-2,37,27,18,31,17,4,96,69,30,30.20,29.91,7,1,13,0.00
2013-2-3,45,36,30,30,24,18,96,63,36,29.93,29.80,8,1,14,0.07
2013-2-4,49,35,24,25,21,18,82,60,30,30.03,29.90,7,1,15,0.03
2013-2-5,56,46,35,39,28,22,63,51,29,29.94,29.83,6,1,18,0.00
2013-2-6,61,48,32,34,27,19,89,49,21,30.15,29.93,4,0,9,0.00
2013-2-7,44,41,38,41,31,21,95,71,43,30.16,29.92,3,0,7,0.41
2013-2-8,55,43,36,45,36,24,96,78,50,30.04,29.84,5,1,13,0.41
2013-2-9,58,42,28,24,18,9,74,44,15,30.25,30.00,5,1,13,0.00
2013-2-10,50,41,36,42,28,18,96,62,30,30.32,30.08,8,1,14,0.67
2013-2-11,58,50,44,54,43,21,99,79,26,30.10,29.93,4,1,16,0.90
2013-2-12,52,44,37,39,30,22,94,60,33,30.05,29.85,2,0,4,0.07
2013-2-13,48,40,34,42,36,27,96,84,56,29.85,29.58,5,1,15,0.04
2013-2-14,50,38,28,33,27,24,89,66,39,29.98,29.79,6,1,13,0.00
2013-2-15,57,41,28,36,28,24,86,62,28,30.02,29.86,7,1,14,0.00
2013-2-16,37,30,21,28,20,7,88,65,42,29.91,29.75,5,1,13,0.02
2013-2-17,39,27,19,9,2,-3,56,36,17,30.13,29.88,5,1,17,0.02
2013-2-18,50,35,21,22,16,6,66,46,28,30.24,30.09,6,1,16,0.00
2013-2-19,52,40,32,39,25,6,95,59,29,30.09,29.80,9,2,22,0.20
2013-2-20,48,35,26,11,9,6,49,34,20,30.03,29.93,1,0,5,0.00
2013-2-21,58,40,24,35,17,9,93,44,18,30.13,29.98,4,0,8,0.34
2013-2-22,40,37,34,39,35,32,98,94,90,30.16,29.99,1,0,5,0.89
2013-2-23,50,44,38,50,44,38,100,99,94,30.00,29.78,0,0,3,0.27
2013-2-24,58,46,35,47,34,23,100,70,32,29.98,29.78,4,0,8,0.00
2013-2-25,46,38,31,31,25,22,92,63,41,30.06,29.92,2,0,6,0.04
2013-2-26,42,35,32,39,33,30,98,93,75,29.95,29.50,5,1,11,2.13
2013-2-27,55,43,32,35,30,22,89,64,29,29.72,29.57,8,1,17,1.42
2013-2-28,43,37,29,27,23,20,74,57,45,29.79,29.63,4,0,16,0.00
2013-3-1,40,33,26,27,24,21,82,68,57,29.83,29.75,3,0,7,0.00
2013-3-2,39,33,26,29,23,16,93,70,44,29.84,29.73,5,1,14,0.04
2013-3-3,38,28,20,17,14,10,72,56,35,29.88,29.78,4,1,10,0.04
2013-3-4,50,35,19,22,14,10,70,46,23,30.03,29.86,6,1,11,0.00
2013-3-5,48,43,37,46,34,23,95,73,50,29.99,29.58,6,1,17,0.71
2013-3-6,40,32,26,25,21,14,87,63,46,30.02,29.59,8,2,17,0.71
2013-3-7,50,34,25,31,24,21,87,69,43,30.17,30.01,4,0,6,0.00
2013-3-8,56,43,24,25,17,-3,88,41,10,30.24,30.12,5,1,11,0.00
2013-3-9,62,44,27,28,24,19,72,47,26,30.26,30.14,4,0,10,0.00
2013-3-10,62,50,38,33,30,27,70,47,28,30.22,30.09,5,1,11,0.00
2013-3-11,53,50,47,51,46,34,96,87,50,30.12,29.80,5,1,13,1.09
2013-3-12,56,48,38,51,41,24,98,79,50,29.96,29.70,4,0,10,1.46
2013-3-13,49,39,29,28,20,14,82,49,26,30.06,29.93,5,1,16,0.00
2013-3-14,49,35,24,18,13,8,62,42,24,30.18,30.06,6,1,15,0.00
2013-3-15,67,47,26,39,25,14,69,46,24,30.12,29.89,5,1,18,0.00
2013-3-16,74,63,54,43,40,38,58,44,27,29.92,29.75,7,1,18,0.00
2013-3-17,70,61,53,47,44,41,70,53,35,29.97,29.83,9,1,16,0.00
2013-3-18,53,42,39,45,40,37,99,92,74,30.01,29.80,1,0,5,0.53
2013-3-19,61,47,40,43,28,12,99,56,18,30.02,29.79,4,1,14,0.43
2013-3-20,53,42,33,29,9,-1,82,27,11,30.02,29.75,3,1,15,0.00
2013-3-21,43,31,22,29,14,9,90,53,26,29.83,29.67,3,0,10,0.00
2013-3-22,44,33,23,24,16,10,70,50,33,29.94,29.83,5,1,16,0.00
2013-3-23,58,44,36,44,35,22,92,71,52,29.93,29.80,3,0,6,0.00
2013-3-24,46,42,38,42,39,37,96,92,81,29.85,29.45,3,1,11,0.54
2013-3-25,38,34,30,37,22,15,96,61,44,29.80,29.44,6,2,13,0.22
2013-3-26,39,32,27,21,18,15,70,56,41,30.08,29.78,5,1,14,0.00
2013-3-27,48,36,27,24,20,15,69,53,31,30.17,30.06,3,1,11,0.00
2013-3-28,56,39,27,23,17,7,76,46,15,30.22,30.10,6,1,12,0.00
2013-3-29,55,40,27,38,24,14,90,55,26,30.26,30.15,4,1,13,0.00
2013-3-30,60,49,39,43,38,35,96,70,41,30.16,30.00,5,1,12,0.00
2013-3-31,63,53,46,52,47,-100,96,86,55,30.01,29.80,4,1,14,0.00
2013-4-1,67,55,45,51,40,28,95,62,28,29.95,29.81,7,1,13,0.00
2013-4-2,60,48,36,31,26,18,76,45,25,30.08,29.92,5,1,7,0.00
2013-4-3,58,48,39,25,20,14,44,33,21,30.19,30.05,5,0,10,0.00
2013-4-4,47,38,33,36,30,20,95,79,34,30.18,29.89,3,0,6,0.00
2013-4-5,60,46,35,42,35,27,99,71,28,30.04,29.83,5,1,13,0.00
2013-4-6,66,51,35,35,31,28,83,50,26,30.18,30.01,8,1,14,0.00
2013-4-7,64,56,45,43,38,30,68,51,41,30.17,30.06,9,2,20,0.00
2013-4-8,69,61,49,50,46,41,79,60,46,30.13,30.06,10,2,19,0.00
2013-4-9,77,65,52,53,51,48,85,62,43,30.20,30.08,8,1,16,0.00
2013-4-10,80,69,59,55,53,51,75,57,41,30.12,29.97,7,2,15,0.00
2013-4-11,72,66,58,62,55,51,92,70,50,29.98,29.69,11,2,22,0.45
2013-4-12,75,63,50,62,46,26,95,62,19,29.85,29.61,10,2,18,1.44
2013-4-13,73,57,43,38,34,30,74,45,21,30.02,29.81,3,0,8,0.00
2013-4-14,67,55,42,49,39,33,93,58,29,30.08,29.96,5,1,14,0.10
2013-4-15,65,56,50,55,52,48,100,89,68,30.17,29.94,2,0,5,0.30
2013-4-16,74,64,56,58,55,54,95,76,53,30.26,30.16,8,1,12,0.03
2013-4-17,76,62,58,65,57,54,95,84,54,30.25,30.12,3,0,5,0.48
2013-4-18,71,64,56,59,56,52,96,77,52,30.13,29.96,7,1,14,0.00
2013-4-19,65,59,44,61,56,40,96,92,81,29.96,29.71,7,3,22,0.10
2013-4-20,61,48,38,39,26,20,81,45,25,30.22,29.88,5,1,14,0.98
2013-4-21,62,48,34,36,29,24,83,50,28,30.37,30.21,3,0,9,0.00
2013-4-22,63,51,43,37,35,30,78,56,30,30.35,30.15,3,0,10,0.00
2013-4-23,70,53,36,44,36,27,84,54,31,30.24,30.06,5,1,12,0.00
2013-4-24,67,59,50,56,50,43,92,72,57,30.12,30.01,6,1,15,0.00
2013-4-25,69,55,40,55,33,23,92,53,19,30.28,30.05,2,0,7,0.00
2013-4-26,68,53,38,37,31,25,74,45,26,30.37,30.25,4,0,10,0.00
2013-4-27,56,51,49,50,47,38,96,86,50,30.34,30.21,0,0,3,0.54
2013-4-28,51,49,47,51,48,-100,100,98,95,30.22,29.98,0,0,3,0.76
2013-4-29,69,59,50,57,52,50,100,82,56,30.03,29.90,6,1,12,0.40
2013-4-30,74,60,49,56,53,48,100,78,49,30.16,29.96,4,0,7,0.01
2013-5-1,64,58,54,55,51,49,86,77,62,30.25,30.14,1,0,10,0.00
2013-5-2,58,54,52,54,52,50,95,90,83,30.26,30.19,2,0,6,0.11
2013-5-3,56,53,50,52,50,47,95,90,74,30.20,30.06,2,0,7,0.15
2013-5-4,52,47,45,49,45,40,95,91,81,30.07,29.93,2,0,9,1.16
2013-5-5,49,47,45,49,46,44,100,97,95,29.94,29.77,3,0,11,2.32
2013-5-6,61,52,44,51,46,41,100,80,52,29.88,29.73,4,1,11,2.71
2013-5-7,65,51,37,52,43,36,99,78,43,29.93,29.83,2,0,7,0.01
2013-5-8,67,57,46,54,49,44,95,77,56,30.03,29.90,2,0,6,0.01
2013-5-9,77,62,46,56,52,45,96,73,38,30.10,30.00,2,0,6,0.00
2013-5-10,75,62,52,58,52,-100,96,76,51,30.11,29.97,5,1,14,0.02
2013-5-11,72,64,56,60,55,50,90,74,56,29.98,29.83,4,0,8,0.02
2013-5-12,69,58,48,54,39,-100,91,55,27,30.03,29.86,2,0,9,0.00
2013-5-13,67,53,42,32,27,20,62,39,18,30.15,30.02,4,0,12,0.00
2013-5-14,69,55,37,51,38,29,86,57,31,30.22,30.07,3,0,14,0.00
2013-5-15,88,70,55,55,51,46,82,55,23,30.11,29.98,3,0,12,0.00
2013-5-16,79,61,55,60,33,-100,85,63,35,30.07,29.99,2,0,6,0.00
2013-5-17,78,65,56,60,49,-100,92,72,41,30.13,30.03,3,0,9,0.00
2013-5-18,65,62,59,62,59,54,96,90,74,30.13,30.05,2,0,4,0.42
2013-5-19,72,65,62,64,62,60,96,89,71,30.12,30.02,1,0,6,0.15
2013-5-20,81,65,58,66,61,57,98,88,51,30.14,30.05,1,0,4,0.09
2013-5-21,84,65,58,67,61,58,100,89,48,30.09,29.99,4,0,9,0.09
2013-5-22,80,66,58,67,62,58,100,87,57,30.04,29.90,3,0,12,0.44
2013-5-23,79,67,60,65,58,49,100,76,35,29.97,29.86,2,0,10,0.48
2013-5-24,67,60,51,53,42,31,81,53,29,30.21,29.91,3,1,12,0.00
2013-5-25,75,59,41,49,37,22,85,47,20,30.29,30.16,1,0,6,0.00
2013-5-26,76,59,49,53,47,33,95,66,38,30.28,30.16,2,0,5,0.06
2013-5-27,77,64,50,57,53,48,95,70,41,30.27,30.16,3,0,9,0.06
2013-5-28,79,69,59,60,57,55,89,68,46,30.24,30.16,3,0,11,0.00
2013-5-29,80,70,59,62,59,56,92,70,48,30.25,30.18,1,0,6,0.00
2013-5-30,79,68,58,63,58,56,95,74,50,30.30,30.19,1,0,6,0.00
2013-5-31,79,72,63,62,59,56,93,66,47,30.25,30.14,4,0,10,0.00
2013-6-1,78,70,63,62,61,59,91,74,53,30.16,30.05,3,0,10,0.00
2013-6-2,73,66,63,68,63,-100,96,92,77,30.09,29.93,1,0,6,1.72
2013-6-3,79,68,60,67,62,59,100,85,60,29.99,29.88,1,0,3,0.29
2013-6-4,80,68,58,64,61,57,96,78,50,30.11,29.97,1,0,6,0.00
2013-6-5,76,69,64,66,63,61,95,83,66,30.12,29.98,4,0,7,0.77
2013-6-6,74,66,61,66,63,60,99,89,75,30.02,29.81,2,0,5,0.83
2013-6-7,81,68,63,69,64,61,96,88,55,29.86,29.70,1,0,5,0.35
2013-6-8,81,69,61,65,63,58,97,82,47,30.12,29.85,2,0,6,0.30
2013-6-9,78,68,62,68,64,60,96,87,67,30.18,30.06,4,0,10,1.17
2013-6-10,76,68,64,65,64,57,96,87,52,30.07,29.93,3,0,12,1.88
2013-6-11,86,72,62,67,62,54,96,74,37,30.06,29.97,1,0,4,0.02
2013-6-12,90,74,60,74,66,59,96,77,53,30.09,29.98,2,0,7,0.02
2013-6-13,88,73,65,68,63,57,95,75,39,29.99,29.79,4,0,13,0.02
2013-6-14,80,68,58,64,54,48,95,62,38,30.07,29.85,4,0,8,0.02
2013-6-15,80,66,53,62,56,50,93,70,49,30.17,30.07,2,0,6,0.01
2013-6-16,80,70,57,64,60,55,92,73,53,30.17,30.06,3,0,9,0.00
2013-6-17,78,71,66,70,66,63,94,84,69,30.10,29.98,1,0,11,0.09
2013-6-18,79,68,62,68,65,60,96,89,64,30.01,29.85,3,0,10,0.07
2013-6-19,79,68,60,65,61,57,95,78,57,30.16,29.94,1,0,5,0.05
2013-6-20,81,66,59,64,61,58,96,84,51,30.25,30.13,1,0,7,0.00
2013-6-22,84,76,64,61,58,51,83,53,34,30.27,30.14,2,0,6,0.00
2013-6-23,81,69,59,67,62,57,94,80,56,30.25,30.15,2,0,4,0.20
2013-6-24,79,69,63,68,65,62,96,88,63,30.26,30.14,1,0,7,0.24
2013-6-25,81,69,62,68,65,61,96,89,59,30.19,30.07,0,0,3,0.04
2013-6-26,85,71,62,70,66,61,96,83,56,30.10,29.97,2,0,4,0.01
2013-6-27,87,74,66,70,66,63,96,79,51,30.01,29.81,1,0,6,0.12
2013-6-28,88,71,63,68,65,60,96,83,42,29.88,29.69,1,0,6,0.08
2013-6-29,85,72,62,67,61,52,96,73,33,29.77,29.68,2,0,7,0.09
2013-6-30,81,69,58,65,60,56,94,74,42,29.87,29.73,1,0,7,0.00
2013-7-1,79,67,63,67,64,62,96,88,61,29.97,29.82,1,0,6,0.78
2013-7-2,80,69,62,68,65,61,96,87,60,30.14,29.98,1,0,8,0.62
2013-7-3,72,66,62,69,65,61,96,94,85,30.24,30.11,1,0,5,3.46
2013-7-4,70,65,61,69,64,60,97,96,93,30.25,30.17,9,0,17,2.76
2013-7-5,79,68,65,68,65,63,96,91,60,30.28,30.18,2,0,5,0.37
2013-7-6,78,69,65,70,66,64,96,91,70,30.25,30.15,2,0,5,0.58
2013-7-7,76,71,67,68,67,66,96,88,74,30.21,30.12,3,0,8,0.24
2013-7-8,82,70,66,70,67,65,96,91,64,30.25,30.16,2,0,4,0.06
2013-7-9,85,72,66,71,68,65,96,87,54,30.23,30.11,1,0,5,0.10
2013-7-10,82,69,68,73,64,-100,96,89,69,30.17,30.02,1,0,5,0.34
2013-7-11,79,71,65,72,68,64,97,91,76,30.03,29.92,0,0,2,0.11
2013-7-12,78,68,62,70,65,61,97,91,70,30.02,29.92,0,0,5,0.18
2013-7-13,73,67,62,67,64,60,96,88,77,30.14,30.01,1,0,7,0.07
2013-7-14,70,68,66,68,66,65,96,94,89,30.30,30.13,3,0,10,0.29
2013-7-15,81,70,65,69,66,64,97,88,61,30.37,30.30,1,0,4,0.03
2013-7-16,89,75,66,72,68,65,97,83,48,30.37,30.29,1,0,3,0.09
2013-7-17,86,71,66,73,67,65,96,90,55,30.34,30.22,1,0,3,0.32
2013-7-18,83,71,65,72,66,64,97,86,62,30.26,30.16,0,0,3,0.32
2013-7-19,85,72,65,70,68,64,96,86,56,30.19,30.05,0,0,3,0.00
2013-7-20,84,72,68,73,68,66,94,88,63,30.09,29.98,0,0,0,0.05
2013-7-21,85,70,65,72,67,64,97,90,57,30.07,29.99,0,0,0,0.63
2013-7-22,81,68,64,70,65,63,97,93,65,30.06,29.89,1,0,8,0.63
2013-7-23,85,72,62,72,66,61,97,82,51,29.97,29.84,0,0,5,0.11
2013-7-24,85,72,65,71,66,62,96,81,55,29.92,29.83,0,0,4,0.02
2013-7-25,82,66,62,70,63,61,97,90,57,30.09,29.90,1,0,4,0.55
2013-7-26,79,68,60,68,64,59,97,87,60,30.14,30.06,2,0,5,0.77
2013-7-27,77,72,66,70,67,65,97,84,69,30.08,29.93,1,0,4,1.09
2013-7-28,84,71,63,68,64,61,96,82,46,30.07,29.95,3,0,9,0.00
2013-7-29,86,67,59,66,61,58,97,83,44,30.24,30.06,0,0,3,0.00
2013-7-30,80,68,59,69,62,57,96,84,63,30.26,30.17,0,0,3,0.00
2013-7-31,73,69,66,69,66,65,96,91,78,30.23,30.01,0,0,4,0.15
2013-8-1,81,70,64,71,67,63,96,88,69,30.03,29.95,2,0,6,0.01
2013-8-2,80,69,60,69,64,59,97,84,61,30.09,29.98,1,0,4,0.00
2013-8-3,84,74,64,70,65,60,96,77,49,30.10,30.01,1,0,3,0.00
2013-8-4,83,73,63,68,64,56,95,74,53,30.06,30.01,3,0,6,0.00
2013-9-13,78,67,56,62,55,51,84,66,52,30.01,29.93,1,0,3,0.08
2013-9-14,73,60,51,57,53,49,95,79,52,30.21,30.01,1,0,5,0.08
2013-9-15,73,59,53,61,53,-100,98,86,63,30.29,30.21,3,0,7,0.00
2013-9-16,79,65,54,66,60,53,99,84,55,30.26,30.19,1,0,4,0.00
2013-9-17,67,63,59,62,56,53,90,79,63,30.39,30.27,1,0,3,0.00
2013-9-18,60,58,55,56,55,53,92,89,88,30.35,30.28,0,0,0,0.00
2013-9-19,76,65,59,68,62,58,98,91,66,30.28,30.19,1,0,3,0.13
2013-9-20,79,67,58,66,63,58,99,87,63,30.21,30.05,2,0,7,0.01
2013-9-21,65,62,58,64,62,58,99,97,94,30.06,29.79,2,0,6,1.48
2013-9-22,73,60,53,60,54,-100,99,84,55,30.01,29.84,1,0,5,0.01
2013-9-23,70,61,55,60,56,53,97,85,62,30.14,30.01,1,0,4,0.01
2013-9-24,70,61,53,61,58,52,99,89,70,30.16,30.03,1,0,4,0.00
2013-9-25,61,60,57,60,59,56,99,97,94,30.03,29.95,1,0,2,1.45
2013-9-26,69,60,55,63,58,55,99,94,78,30.13,29.97,1,0,5,0.02
2013-9-29,70,58,50,58,51,-100,96,82,59,30.26,30.11,1,0,5,0.00
2013-9-30,70,60,52,59,56,51,98,87,61,30.18,30.10,1,0,3,0.00
2013-10-1,63,60,56,58,57,55,96,91,85,30.22,30.17,0,0,0,0.00
2013-10-2,76,63,52,63,58,51,99,85,54,30.27,30.19,2,0,5,0.01
2013-10-3,77,65,55,62,59,54,99,84,57,30.25,30.18,2,0,6,0.01
2013-10-4,79,65,54,65,60,53,99,85,55,30.27,30.21,1,0,4,0.00
2013-10-5,80,67,56,66,61,56,99,84,54,30.26,30.16,1,0,4,0.01
2013-10-6,75,68,56,64,61,55,99,81,63,30.14,30.00,3,0,8,0.01
2013-10-7,64,60,50,63,58,48,99,95,81,30.09,29.91,1,0,5,1.75
2013-10-8,65,55,47,52,49,45,97,82,55,30.27,30.08,2,0,6,0.07
2013-10-9,69,56,46,55,48,40,95,76,50,30.28,30.19,2,0,7,0.00
2013-10-10,72,56,42,55,50,41,98,81,51,30.22,30.10,3,0,6,0.00
2013-10-11,74,58,46,55,51,45,98,79,46,30.13,30.04,2,0,6,0.00
2013-10-12,74,60,51,61,55,50,98,86,60,30.19,30.08,1,0,3,0.00
2013-10-13,71,62,57,62,57,-100,98,88,69,30.30,30.19,1,0,6,0.20
2013-10-14,67,61,58,62,59,56,98,93,80,30.32,30.24,2,0,5,0.11
2013-10-15,66,59,55,59,56,54,97,90,73,30.27,30.14,1,0,5,0.01
2013-10-16,66,57,51,58,54,50,99,90,74,30.17,30.04,2,0,6,0.01
2013-10-17,62,59,57,62,59,56,99,98,97,30.06,29.94,2,0,5,0.10
2013-10-18,66,56,50,58,52,49,99,87,61,30.09,29.99,2,0,9,0.02
2013-10-19,62,55,47,54,50,45,98,85,55,30.04,29.91,2,0,5,0.01
2013-10-20,64,49,38,45,40,-100,98,78,39,30.14,30.01,2,0,5,0.01
2013-10-21,62,50,38,52,46,37,98,88,65,30.19,30.06,3,0,10,0.01
2013-10-22,68,57,51,54,50,43,97,81,44,30.08,29.88,2,0,6,0.00
2013-10-23,60,49,37,48,33,27,90,59,30,30.04,29.81,4,1,8,0.00
2013-10-24,56,43,30,37,32,27,92,67,43,30.18,30.04,3,0,10,0.00
2013-10-25,49,41,31,37,25,18,82,55,33,30.36,30.18,4,1,10,0.00
2013-10-26,52,38,25,37,30,23,94,74,47,30.35,30.10,4,1,8,0.00
2013-10-27,62,51,38,51,42,-100,95,74,57,30.17,30.09,1,0,6,0.00
2013-10-28,62,52,48,54,48,-100,98,90,68,30.32,30.15,3,0,5,0.05
2013-10-29,68,56,48,53,50,46,99,83,45,30.40,30.29,3,0,8,0.01
2013-10-30,75,61,51,57,53,49,95,77,47,30.35,30.24,3,0,8,0.00
2013-11-12,55,38,24,36,27,13,77,63,41,30.42,30.11,9,2,15,0.00
2013-11-13,48,31,20,17,12,5,70,48,20,30.49,30.39,3,1,12,0.00
2013-11-14,56,38,23,22,18,14,73,48,22,30.44,30.32,4,1,7,0.00
2013-11-15,50,48,46,47,46,44,98,96,79,30.30,30.21,1,0,6,0.28
2013-11-16,61,52,47,54,48,-100,99,93,76,30.29,30.20,3,0,15,0.06
2013-11-17,59,56,53,58,55,52,99,97,90,30.26,29.98,2,0,5,0.68
2013-11-18,66,55,45,59,44,29,99,70,35,30.06,29.93,4,1,12,0.36
2013-11-25,40,30,21,21,10,1,64,44,19,30.44,30.27,3,1,7,0.00
2013-11-26,42,38,30,42,37,24,99,97,72,30.26,29.65,1,0,4,2.94
2013-11-27,42,32,24,42,25,13,99,76,55,30.13,29.59,6,2,14,0.06
2013-11-28,47,30,17,26,19,13,88,67,28,30.41,30.13,3,0,7,0.01
2013-11-29,52,40,25,28,24,19,91,56,31,30.55,30.43,3,0,5,0.00
2013-11-30,46,36,30,26,21,-100,75,58,43,30.56,30.33,2,1,6,0.00
2013-12-1,56,37,28,38,28,23,86,71,49,30.32,30.06,4,1,10,0.00
2013-12-4,61,53,48,56,52,47,99,96,81,30.11,29.96,4,1,11,0.01
2013-12-5,64,60,56,63,59,56,99,98,92,30.14,30.05,5,1,10,0.81
2013-12-6,65,63,53,63,62,52,99,97,92,30.09,30.01,6,4,14,1.42
2013-12-7,53,46,40,53,42,-100,99,89,76,30.36,30.06,2,0,5,0.05
2013-12-8,42,37,36,41,37,35,99,98,97,30.36,30.19,1,0,4,0.52
2013-12-9,54,47,37,53,46,37,100,99,96,30.20,30.05,5,2,11,1.13
2013-12-10,50,43,26,50,38,19,100,83,49,30.29,29.90,6,2,14,0.22
2013-12-11,49,35,22,29,23,15,95,65,31,30.39,30.27,2,0,6,0.17
2013-12-12,42,32,26,23,20,17,80,65,37,30.37,30.26,4,1,6,0.00
2013-12-25,34,24,18,21,17,14,93,76,51,30.43,30.32,2,0,7,0.01
2013-12-26,49,33,22,26,22,16,83,64,40,30.34,30.22,2,0,5,0.00
2013-12-27,50,35,24,29,25,22,94,72,41,30.43,30.32,3,0,5,0.00
2013-12-28,44,34,26,38,28,-100,97,82,49,30.40,30.11,3,0,5,0.37
2013-12-29,55,42,37,48,40,36,99,93,76,30.09,29.81,3,0,5,1.35
2013-12-30,45,37,32,41,36,31,98,93,82,30.13,29.98,1,0,4,0.01
2013-12-31,43,34,28,33,28,23,98,82,50,30.30,30.11,2,0,7,0.01